메인 페이지
METAR-TAF:

METAR-TAF

공항 :

Beauvais, 프랑스

위도: 49-28N, 경도: 002-07E, 고도: 109m

현재 날씨관측

예보는 21분 전, 16:00시(UTC)에 발표되었습니다.
9kt남남동풍과 남서풍을 오가는
온도 18°C
습도 77%
기압 1004 hPa
시정 10km 이상
1500m 미만 상공 구름 및 적란운 없음

METAR: LFOB 141600Z AUTO 19009KT 160V220 CAVOK 18/14 Q1004 TEMPO 1500 TSRA SCT012 BKN025CB

시각: 18:21 (16:21 UTC)

예보

예보는 5 시간 21분 전, 11:00시(UTC)에 발표되었습니다.
예보 대상 시간: 14일 12시부터 15일 12시까지 (UTC)
남남서10kt
시정 10km 이상
고도 2000ft 상공 구름 많음
일시적
14일 12시부터 15일 03시까지 (UTC)
시정: 3500m
고도 1200ft 상공 구름 보통
고도 2500ft 상공 구름 많음, 적란운.
소나기
일시적
14일 14시부터 14일 16시까지 (UTC)
남남서15kt, 순간 최대 풍속 25kt
확률 40% :
일시적
14일 16시부터 14일 19시까지 (UTC)
시정: 1500m
뇌우, 비
확률 40% :
일시적
15일 03시부터 15일 07시까지 (UTC)
고도 1200ft 상공 구름 많음
일시적
15일 09시부터 15일 12시까지 (UTC)
남남서15kt, 순간 최대 풍속 25kt

TAF: LFOB 141100Z 1412/1512 20010KT 9999 BKN020 TEMPO 1412/1503 3500 SHRA SCT012 BKN025CB TEMPO 1414/1416 21015G25KT PROB40 TEMPO 1416/1419 1500 TSRA PROB40 TEMPO 1503/1507 BKN012 TEMPO 1509/1512 21015G25KT

4,000개 이상의 공항 관측 자료 및 예보 (METAR 및 TAF 보고).

지도상에서 검색 가능한 기상관측소가 노란 점과 빨간 점으로 표시되어 있습니다.

기상관측소 명을 보려면 표시 위로 마우스를 이동하세요.

날씨 관측과 예보를 보려면 클릭하세요.

지도 변경 : 확대하려면 엑스 표시가 있는 녹색 버튼, 축소하려면 빼기 표시가 있는 녹색 버튼, 다음 페이지의 지도를 보려면 녹색 화살표를 클릭하세요.


METAR-TAF: